sensor_id;sensor_type;location;lat;lon;timestamp;pressure;altitude;pressure_sealevel;temperature;humidity
69982;BME280;57319;56.274;43.980;2023-04-02T00:01:45;99499.56;;;4.73;78.61
69982;BME280;57319;56.274;43.980;2023-04-02T00:04:16;99489.44;;;4.80;78.52
69982;BME280;57319;56.274;43.980;2023-04-02T00:06:47;99498.81;;;4.88;78.19
69982;BME280;57319;56.274;43.980;2023-04-02T00:11:49;99498.91;;;5.05;77.41
69982;BME280;57319;56.274;43.980;2023-04-02T00:14:30;99502.34;;;5.12;76.72
69982;BME280;57319;56.274;43.980;2023-04-02T00:17:00;99495.56;;;5.16;76.40
69982;BME280;57319;56.274;43.980;2023-04-02T00:19:57;99506.66;;;5.21;76.06
69982;BME280;57319;56.274;43.980;2023-04-02T00:22:28;99500.72;;;5.23;75.59
69982;BME280;57319;56.274;43.980;2023-04-02T00:24:59;99498.19;;;5.23;75.61
69982;BME280;57319;56.274;43.980;2023-04-02T00:27:25;99498.19;;;5.26;74.94
69982;BME280;57319;56.274;43.980;2023-04-02T00:29:53;99493.09;;;5.25;74.73
69982;BME280;57319;56.274;43.980;2023-04-02T00:32:28;99499.91;;;5.28;74.57
69982;BME280;57319;56.274;43.980;2023-04-02T00:34:56;99494.81;;;5.28;74.52
69982;BME280;57319;56.274;43.980;2023-04-02T00:37:24;99505.84;;;5.30;74.42
69982;BME280;57319;56.274;43.980;2023-04-02T00:42:37;99510.13;;;5.29;74.39
69982;BME280;57319;56.274;43.980;2023-04-02T00:45:06;99506.69;;;5.29;74.49
69982;BME280;57319;56.274;43.980;2023-04-02T00:47:38;99509.28;;;5.32;74.41
69982;BME280;57319;56.274;43.980;2023-04-02T00:52:37;99506.69;;;5.30;74.78
69982;BME280;57319;56.274;43.980;2023-04-02T00:57:58;99511.78;;;5.22;74.67
69982;BME280;57319;56.274;43.980;2023-04-02T01:00:35;99512.63;;;5.20;74.53
69982;BME280;57319;56.274;43.980;2023-04-02T01:05:49;99528.75;;;5.20;74.65
69982;BME280;57319;56.274;43.980;2023-04-02T01:22:07;99544.03;;;5.11;75.49
69982;BME280;57319;56.274;43.980;2023-04-02T01:24:36;99548.25;;;5.09;75.37
69982;BME280;57319;56.274;43.980;2023-04-02T01:27:22;99547.38;;;5.05;75.64
69982;BME280;57319;56.274;43.980;2023-04-02T01:29:55;99554.19;;;5.05;75.65
69982;BME280;57319;56.274;43.980;2023-04-02T01:32:25;99551.63;;;5.05;75.91
69982;BME280;57319;56.274;43.980;2023-04-02T01:34:52;99556.72;;;5.00;75.85
69982;BME280;57319;56.274;43.980;2023-04-02T01:45:19;99558.41;;;5.00;76.64
69982;BME280;57319;56.274;43.980;2023-04-02T01:47:46;99563.50;;;5.00;76.54
69982;BME280;57319;56.274;43.980;2023-04-02T01:50:29;99559.22;;;4.94;77.04
69982;BME280;57319;56.274;43.980;2023-04-02T01:52:58;99566.06;;;5.00;76.66
69982;BME280;57319;56.274;43.980;2023-04-02T01:58:06;99567.78;;;5.04;76.88
69982;BME280;57319;56.274;43.980;2023-04-02T02:00:34;99566.94;;;5.00;77.04
69982;BME280;57319;56.274;43.980;2023-04-02T02:03:01;99565.22;;;5.04;77.08
69982;BME280;57319;56.274;43.980;2023-04-02T02:05:30;99559.28;;;5.03;77.03
69982;BME280;57319;56.274;43.980;2023-04-02T02:07:57;99566.09;;;5.04;76.94
69982;BME280;57319;56.274;43.980;2023-04-02T02:10:27;99570.31;;;5.02;77.18
69982;BME280;57319;56.274;43.980;2023-04-02T02:12:54;99565.22;;;5.02;77.01
69982;BME280;57319;56.274;43.980;2023-04-02T02:15:22;99568.63;;;5.01;76.97
69982;BME280;57319;56.274;43.980;2023-04-02T02:17:49;99575.41;;;4.99;76.79
69982;BME280;57319;56.274;43.980;2023-04-02T02:20:15;99575.41;;;4.95;77.07
69982;BME280;57319;56.274;43.980;2023-04-02T02:22:45;99565.97;;;4.89;77.33
69982;BME280;57319;56.274;43.980;2023-04-02T02:25:18;99571.91;;;4.85;77.54
69982;BME280;57319;56.274;43.980;2023-04-02T02:27:54;99579.59;;;4.88;77.27
69982;BME280;57319;56.274;43.980;2023-04-02T02:30:30;99571.94;;;4.86;77.33
69982;BME280;57319;56.274;43.980;2023-04-02T02:33:03;99571.94;;;4.89;77.56
69982;BME280;57319;56.274;43.980;2023-04-02T02:35:45;99583.81;;;4.89;77.56
69982;BME280;57319;56.274;43.980;2023-04-02T02:41:38;99587.28;;;4.94;77.47
69982;BME280;57319;56.274;43.980;2023-04-02T02:44:11;99589.88;;;4.99;77.51
69982;BME280;57319;56.274;43.980;2023-04-02T02:46:45;99592.44;;;5.00;77.34
69982;BME280;57319;56.274;43.980;2023-04-02T02:49:19;99599.22;;;5.01;77.19
69982;BME280;57319;56.274;43.980;2023-04-02T02:51:53;99591.56;;;5.00;77.32
69982;BME280;57319;56.274;43.980;2023-04-02T02:54:22;99596.72;;;5.04;77.25
69982;BME280;57319;56.274;43.980;2023-04-02T02:57:00;99596.72;;;5.06;77.24
69982;BME280;57319;56.274;43.980;2023-04-02T02:59:28;99606.94;;;5.09;77.38
69982;BME280;57319;56.274;43.980;2023-04-02T03:01:54;99603.56;;;5.13;77.20
69982;BME280;57319;56.274;43.980;2023-04-02T03:04:22;99614.66;;;5.15;76.88
69982;BME280;57319;56.274;43.980;2023-04-02T03:06:50;99611.22;;;5.13;76.96
69982;BME280;57319;56.274;43.980;2023-04-02T03:15:40;99616.34;;;5.15;76.72
69982;BME280;57319;56.274;43.980;2023-04-02T03:25:51;99612.94;;;5.11;76.86
69982;BME280;57319;56.274;43.980;2023-04-02T03:28:22;99617.16;;;5.12;77.00
69982;BME280;57319;56.274;43.980;2023-04-02T03:30:54;99607.81;;;5.11;76.91
69982;BME280;57319;56.274;43.980;2023-04-02T03:33:33;99611.22;;;5.12;76.85
69982;BME280;57319;56.274;43.980;2023-04-02T03:36:18;99618.91;;;5.16;76.87
69982;BME280;57319;56.274;43.980;2023-04-02T03:41:42;99622.31;;;5.18;76.42
69982;BME280;57319;56.274;43.980;2023-04-02T03:44:20;99616.41;;;5.21;76.63
69982;BME280;57319;56.274;43.980;2023-04-02T03:46:52;99620.66;;;5.23;76.73
69982;BME280;57319;56.274;43.980;2023-04-02T03:50:27;99624.06;;;5.25;76.46
69982;BME280;57319;56.274;43.980;2023-04-02T03:52:25;99624.06;;;5.22;76.30
69982;BME280;57319;56.274;43.980;2023-04-02T03:54:52;99624.06;;;5.24;76.33
69982;BME280;57319;56.274;43.980;2023-04-02T03:58:00;99626.63;;;5.25;76.16
69982;BME280;57319;56.274;43.980;2023-04-02T04:00:38;99629.19;;;5.30;76.10
69982;BME280;57319;56.274;43.980;2023-04-02T04:03:14;99635.19;;;5.35;76.11
69982;BME280;57319;56.274;43.980;2023-04-02T04:06:23;99639.47;;;5.42;75.85
69982;BME280;57319;56.274;43.980;2023-04-02T04:11:43;99651.38;;;5.37;75.47
69982;BME280;57319;56.274;43.980;2023-04-02T04:16:50;99638.56;;;5.34;75.69
69982;BME280;57319;56.274;43.980;2023-04-02T04:19:23;99646.28;;;5.42;75.62
69982;BME280;57319;56.274;43.980;2023-04-02T04:22:07;99643.75;;;5.40;75.43
69982;BME280;57319;56.274;43.980;2023-04-02T04:24:34;99647.13;;;5.41;75.26
69982;BME280;57319;56.274;43.980;2023-04-02T04:27:22;99650.50;;;5.32;75.34
69982;BME280;57319;56.274;43.980;2023-04-02T04:30:16;99649.66;;;5.35;75.69
69982;BME280;57319;56.274;43.980;2023-04-02T04:32:57;99659.91;;;5.39;75.66
69982;BME280;57319;56.274;43.980;2023-04-02T04:35:44;99659.06;;;5.40;75.48
69982;BME280;57319;56.274;43.980;2023-04-02T04:40:48;99656.53;;;5.47;75.11
69982;BME280;57319;56.274;43.980;2023-04-02T04:46:30;99652.38;;;5.63;74.36
69982;BME280;57319;56.274;43.980;2023-04-02T04:48:59;99658.38;;;5.69;74.64
69982;BME280;57319;56.274;43.980;2023-04-02T04:51:32;99661.81;;;5.74;74.46
69982;BME280;57319;56.274;43.980;2023-04-02T04:54:00;99666.94;;;5.79;74.15
69982;BME280;57319;56.274;43.980;2023-04-02T04:56:28;99657.59;;;5.83;74.20
69982;BME280;57319;56.274;43.980;2023-04-02T05:01:34;99666.09;;;5.77;74.43
69982;BME280;57319;56.274;43.980;2023-04-02T05:07:00;99679.72;;;5.82;74.35
69982;BME280;57319;56.274;43.980;2023-04-02T05:09:50;99689.09;;;5.83;74.53
69982;BME280;57319;56.274;43.980;2023-04-02T05:17:49;99683.16;;;5.81;74.58
69982;BME280;57319;56.274;43.980;2023-04-02T05:25:30;99692.53;;;5.87;74.15
69982;BME280;57319;56.274;43.980;2023-04-02T05:28:04;99687.44;;;5.85;74.06
69982;BME280;57319;56.274;43.980;2023-04-02T05:35:50;99675.50;;;5.90;74.03
69982;BME280;57319;56.274;43.980;2023-04-02T05:38:24;99684.97;;;6.01;74.13
69982;BME280;57319;56.274;43.980;2023-04-02T05:40:58;99696.09;;;6.07;74.33
69982;BME280;57319;56.274;43.980;2023-04-02T05:43:25;99695.25;;;6.10;74.19
69982;BME280;57319;56.274;43.980;2023-04-02T05:45:54;99696.91;;;6.03;74.22
69982;BME280;57319;56.274;43.980;2023-04-02T05:48:31;99703.75;;;6.06;73.87
69982;BME280;57319;56.274;43.980;2023-04-02T05:50:59;99697.75;;;6.07;73.96
69982;BME280;57319;56.274;43.980;2023-04-02T05:53:33;99702.88;;;6.01;73.86
69982;BME280;57319;56.274;43.980;2023-04-02T05:56:10;99708.00;;;6.08;73.62
69982;BME280;57319;56.274;43.980;2023-04-02T05:58:51;99708.81;;;6.00;73.91
69982;BME280;57319;56.274;43.980;2023-04-02T06:09:48;99711.38;;;6.00;74.24
69982;BME280;57319;56.274;43.980;2023-04-02T06:12:38;99722.47;;;6.06;73.96
69982;BME280;57319;56.274;43.980;2023-04-02T06:15:17;99722.47;;;6.02;73.81
69982;BME280;57319;56.274;43.980;2023-04-02T06:20:17;99726.75;;;6.06;73.67
69982;BME280;57319;56.274;43.980;2023-04-02T06:22:46;99729.31;;;6.09;73.75
69982;BME280;57319;56.274;43.980;2023-04-02T06:25:20;99725.88;;;6.07;73.52
69982;BME280;57319;56.274;43.980;2023-04-02T06:27:48;99728.41;;;6.04;74.09
69982;BME280;57319;56.274;43.980;2023-04-02T06:30:18;99730.16;;;6.13;73.94
69982;BME280;57319;56.274;43.980;2023-04-02T06:32:45;99733.59;;;6.15;73.58
69982;BME280;57319;56.274;43.980;2023-04-02T06:35:12;99731.03;;;6.19;73.55
69982;BME280;57319;56.274;43.980;2023-04-02T06:37:40;99736.16;;;6.19;73.66
69982;BME280;57319;56.274;43.980;2023-04-02T06:43:49;99737.88;;;6.25;73.13
69982;BME280;57319;56.274;43.980;2023-04-02T06:48:51;99752.44;;;6.34;73.44
69982;BME280;57319;56.274;43.980;2023-04-02T06:51:21;99743.94;;;6.38;72.58
69982;BME280;57319;56.274;43.980;2023-04-02T06:53:49;99757.53;;;6.31;72.67
69982;BME280;57319;56.274;43.980;2023-04-02T06:58:53;99757.53;;;6.31;72.97
69982;BME280;57319;56.274;43.980;2023-04-02T07:01:31;99751.56;;;6.32;72.63
69982;BME280;57319;56.274;43.980;2023-04-02T07:03:58;99750.66;;;6.25;72.44
69982;BME280;57319;56.274;43.980;2023-04-02T07:06:24;99753.25;;;6.30;72.43
69982;BME280;57319;56.274;43.980;2023-04-02T07:08:49;99761.81;;;6.36;72.49
69982;BME280;57319;56.274;43.980;2023-04-02T07:11:17;99751.59;;;6.42;71.94
69982;BME280;57319;56.274;43.980;2023-04-02T07:13:43;99754.22;;;6.56;72.06
69982;BME280;57319;56.274;43.980;2023-04-02T07:16:22;99767.03;;;6.59;71.46
69982;BME280;57319;56.274;43.980;2023-04-02T07:18:53;99767.88;;;6.66;71.28
69982;BME280;57319;56.274;43.980;2023-04-02T07:21:24;99762.75;;;6.60;71.01
69982;BME280;57319;56.274;43.980;2023-04-02T07:23:51;99761.91;;;6.62;71.13
69982;BME280;57319;56.274;43.980;2023-04-02T07:26:19;99757.63;;;6.55;70.71
69982;BME280;57319;56.274;43.980;2023-04-02T07:28:46;99764.44;;;6.58;70.69
69982;BME280;57319;56.274;43.980;2023-04-02T07:31:17;99761.09;;;6.71;70.79
69982;BME280;57319;56.274;43.980;2023-04-02T07:33:44;99761.13;;;6.84;70.34
69982;BME280;57319;56.274;43.980;2023-04-02T07:36:18;99756.06;;;7.02;69.92
69982;BME280;57319;56.274;43.980;2023-04-02T07:38:44;99762.88;;;7.12;69.85
69982;BME280;57319;56.274;43.980;2023-04-02T07:41:11;99759.47;;;7.12;69.30
69982;BME280;57319;56.274;43.980;2023-04-02T07:43:37;99768.88;;;7.16;69.17
69982;BME280;57319;56.274;43.980;2023-04-02T07:46:03;99758.63;;;7.22;68.95
69982;BME280;57319;56.274;43.980;2023-04-02T07:48:29;99757.78;;;7.28;68.64
69982;BME280;57319;56.274;43.980;2023-04-02T07:50:55;99766.31;;;7.33;68.43
69982;BME280;57319;56.274;43.980;2023-04-02T07:53:33;99763.75;;;7.35;67.74
69982;BME280;57319;56.274;43.980;2023-04-02T07:56:00;99764.63;;;7.37;68.13
69982;BME280;57319;56.274;43.980;2023-04-02T07:58:28;99774.03;;;7.39;67.98
69982;BME280;57319;56.274;43.980;2023-04-02T08:00:55;99768.91;;;7.44;67.93
69982;BME280;57319;56.274;43.980;2023-04-02T08:03:21;99763.75;;;7.35;67.87
69982;BME280;57319;56.274;43.980;2023-04-02T08:05:54;99780.81;;;7.23;68.33
69982;BME280;57319;56.274;43.980;2023-04-02T08:08:22;99776.56;;;7.33;68.30
69982;BME280;57319;56.274;43.980;2023-04-02T08:10:48;99774.00;;;7.30;68.75
69982;BME280;57319;56.274;43.980;2023-04-02T08:13:15;99780.84;;;7.40;68.58
69982;BME280;57319;56.274;43.980;2023-04-02T08:15:41;99774.88;;;7.49;68.57
69982;BME280;57319;56.274;43.980;2023-04-02T08:18:07;99787.66;;;7.44;68.13
69982;BME280;57319;56.274;43.980;2023-04-02T08:20:33;99796.19;;;7.25;68.06
69982;BME280;57319;56.274;43.980;2023-04-02T08:22:59;99799.59;;;7.19;68.32
69982;BME280;57319;56.274;43.980;2023-04-02T08:25:26;99786.78;;;7.07;68.43
69982;BME280;57319;56.274;43.980;2023-04-02T08:27:52;99787.63;;;7.03;68.99
69982;BME280;57319;56.274;43.980;2023-04-02T08:30:17;99791.84;;;6.99;69.31
69982;BME280;57319;56.274;43.980;2023-04-02T08:32:44;99785.91;;;7.00;69.75
69982;BME280;57319;56.274;43.980;2023-04-02T08:35:12;99789.28;;;6.99;69.25
69982;BME280;57319;56.274;43.980;2023-04-02T08:37:39;99784.22;;;7.08;69.28
69982;BME280;57319;56.274;43.980;2023-04-02T08:40:06;99789.34;;;7.16;68.95
69982;BME280;57319;56.274;43.980;2023-04-02T08:48:10;99796.16;;;7.14;69.00
69982;BME280;57319;56.274;43.980;2023-04-02T08:50:39;99803.00;;;7.18;69.31
69982;BME280;57319;56.274;43.980;2023-04-02T08:53:15;99794.50;;;7.30;68.65
69982;BME280;57319;56.274;43.980;2023-04-02T08:58:46;99799.59;;;7.35;68.64
69982;BME280;57319;56.274;43.980;2023-04-02T09:04:08;99806.44;;;7.23;68.52
69982;BME280;57319;56.274;43.980;2023-04-02T09:06:37;99814.94;;;7.16;68.82
69982;BME280;57319;56.274;43.980;2023-04-02T09:09:03;99810.66;;;7.01;69.26
69982;BME280;57319;56.274;43.980;2023-04-02T09:14:43;99808.06;;;6.89;70.32
69982;BME280;57319;56.274;43.980;2023-04-02T09:17:27;99809.78;;;6.88;70.44
69982;BME280;57319;56.274;43.980;2023-04-02T09:20:23;99802.06;;;6.84;69.94
69982;BME280;57319;56.274;43.980;2023-04-02T09:22:51;99808.88;;;6.85;70.06
69982;BME280;57319;56.274;43.980;2023-04-02T09:25:29;99802.09;;;6.96;69.97
69982;BME280;57319;56.274;43.980;2023-04-02T09:28:01;99797.84;;;7.01;69.41
69982;BME280;57319;56.274;43.980;2023-04-02T09:33:02;99797.88;;;7.18;69.16
69982;BME280;57319;56.274;43.980;2023-04-02T09:35:36;99796.19;;;7.22;69.20
69982;BME280;57319;56.274;43.980;2023-04-02T09:38:29;99800.47;;;7.24;68.76
69982;BME280;57319;56.274;43.980;2023-04-02T09:41:04;99800.41;;;7.06;68.87
69982;BME280;57319;56.274;43.980;2023-04-02T09:43:32;99807.25;;;7.04;68.97
69982;BME280;57319;56.274;43.980;2023-04-02T09:46:02;99803.84;;;7.06;69.20
69982;BME280;57319;56.274;43.980;2023-04-02T09:48:33;99801.28;;;7.09;69.09
69982;BME280;57319;56.274;43.980;2023-04-02T09:51:32;99806.41;;;7.14;68.77
69982;BME280;57319;56.274;43.980;2023-04-02T09:56:38;99804.75;;;7.25;68.90
69982;BME280;57319;56.274;43.980;2023-04-02T09:59:14;99798.75;;;7.25;68.63
69982;BME280;57319;56.274;43.980;2023-04-02T10:02:39;99800.47;;;7.34;68.69
69982;BME280;57319;56.274;43.980;2023-04-02T10:05:02;99805.59;;;7.37;68.22
69982;BME280;57319;56.274;43.980;2023-04-02T10:07:44;99813.28;;;7.40;68.34
69982;BME280;57319;56.274;43.980;2023-04-02T10:10:32;99812.41;;;7.36;68.36
69982;BME280;57319;56.274;43.980;2023-04-02T10:13:07;99814.13;;;7.39;68.52
69982;BME280;57319;56.274;43.980;2023-04-02T10:15:43;99816.69;;;7.39;68.15
69982;BME280;57319;56.274;43.980;2023-04-02T10:21:02;99815.00;;;7.41;67.98
69982;BME280;57319;56.274;43.980;2023-04-02T10:23:29;99813.28;;;7.49;67.72
69982;BME280;57319;56.274;43.980;2023-04-02T10:40:16;99820.97;;;7.43;67.69
69982;BME280;57319;56.274;43.980;2023-04-02T10:45:49;99826.09;;;7.46;67.66
69982;BME280;57319;56.274;43.980;2023-04-02T10:51:00;99819.25;;;7.63;66.97
69982;BME280;57319;56.274;43.980;2023-04-02T10:56:05;99815.00;;;7.78;66.80
69982;BME280;57319;56.274;43.980;2023-04-02T10:58:38;99814.16;;;7.84;66.30
69982;BME280;57319;56.274;43.980;2023-04-02T11:01:14;99824.41;;;7.87;65.96
69982;BME280;57319;56.274;43.980;2023-04-02T11:03:45;99821.81;;;7.87;66.10
69982;BME280;57319;56.274;43.980;2023-04-02T11:06:38;99821.81;;;7.90;65.29
69982;BME280;57319;56.274;43.980;2023-04-02T11:09:14;99818.41;;;8.02;65.71
69982;BME280;57319;56.274;43.980;2023-04-02T11:11:44;99815.81;;;8.12;66.08
69982;BME280;57319;56.274;43.980;2023-04-02T11:14:24;99817.53;;;8.15;65.84
69982;BME280;57319;56.274;43.980;2023-04-02T11:16:52;99816.66;;;8.25;65.76
69982;BME280;57319;56.274;43.980;2023-04-02T11:21:59;99819.25;;;8.19;65.03
69982;BME280;57319;56.274;43.980;2023-04-02T11:27:17;99820.97;;;8.08;64.67
69982;BME280;57319;56.274;43.980;2023-04-02T11:35:03;99830.38;;;8.03;65.60
69982;BME280;57319;56.274;43.980;2023-04-02T11:37:39;99833.78;;;8.05;65.01
69982;BME280;57319;56.274;43.980;2023-04-02T11:42:36;99832.09;;;7.96;65.70
69982;BME280;57319;56.274;43.980;2023-04-02T11:50:31;99830.41;;;7.75;65.42
69982;BME280;57319;56.274;43.980;2023-04-02T11:56:06;99827.81;;;7.66;65.99
69982;BME280;57319;56.274;43.980;2023-04-02T12:01:42;99844.88;;;7.48;66.14
69982;BME280;57319;56.274;43.980;2023-04-02T12:13:20;99838.91;;;7.51;66.55
69982;BME280;57319;56.274;43.980;2023-04-02T12:15:47;99838.91;;;7.49;66.81
69982;BME280;57319;56.274;43.980;2023-04-02T12:18:18;99846.59;;;7.49;66.71
69982;BME280;57319;56.274;43.980;2023-04-02T12:20:48;99840.59;;;7.45;67.08
69982;BME280;57319;56.274;43.980;2023-04-02T12:23:19;99837.19;;;7.51;66.60
69982;BME280;57319;56.274;43.980;2023-04-02T12:25:54;99841.47;;;7.52;66.71
69982;BME280;57319;56.274;43.980;2023-04-02T12:28:21;99838.91;;;7.52;67.33
69982;BME280;57319;56.274;43.980;2023-04-02T12:30:48;99836.34;;;7.54;66.77
69982;BME280;57319;56.274;43.980;2023-04-02T12:35:42;99838.03;;;7.48;66.65
69982;BME280;57319;56.274;43.980;2023-04-02T12:38:42;99844.88;;;7.48;67.09
69982;BME280;57319;56.274;43.980;2023-04-02T12:41:28;99842.31;;;7.45;66.72
69982;BME280;57319;56.274;43.980;2023-04-02T12:43:59;99832.91;;;7.35;67.06
69982;BME280;57319;56.274;43.980;2023-04-02T12:46:27;99832.06;;;7.36;67.29
69982;BME280;57319;56.274;43.980;2023-04-02T12:49:02;99832.06;;;7.39;66.86
69982;BME280;57319;56.274;43.980;2023-04-02T12:51:29;99834.63;;;7.45;66.99
69982;BME280;57319;56.274;43.980;2023-04-02T12:53:55;99835.47;;;7.45;67.13
69982;BME280;57319;56.274;43.980;2023-04-02T12:56:22;99834.59;;;7.39;67.15
69982;BME280;57319;56.274;43.980;2023-04-02T12:58:53;99836.31;;;7.38;67.43
69982;BME280;57319;56.274;43.980;2023-04-02T13:01:27;99832.06;;;7.34;66.98
69982;BME280;57319;56.274;43.980;2023-04-02T13:04:04;99844.84;;;7.36;67.15
69982;BME280;57319;56.274;43.980;2023-04-02T13:06:31;99838.88;;;7.35;67.30
69982;BME280;57319;56.274;43.980;2023-04-02T13:08:59;99840.59;;;7.38;67.16
69982;BME280;57319;56.274;43.980;2023-04-02T13:11:38;99840.56;;;7.35;67.16
69982;BME280;57319;56.274;43.980;2023-04-02T13:14:07;99841.44;;;7.34;67.06
69982;BME280;57319;56.274;43.980;2023-04-02T13:16:36;99838.88;;;7.30;67.22
69982;BME280;57319;56.274;43.980;2023-04-02T13:19:31;99844.81;;;7.28;67.23
69982;BME280;57319;56.274;43.980;2023-04-02T13:21:59;99843.97;;;7.26;67.12
69982;BME280;57319;56.274;43.980;2023-04-02T13:24:30;99844.81;;;7.20;67.32
69982;BME280;57319;56.274;43.980;2023-04-02T13:26:59;99841.41;;;7.18;67.57
69982;BME280;57319;56.274;43.980;2023-04-02T13:29:32;99844.81;;;7.19;67.24
69982;BME280;57319;56.274;43.980;2023-04-02T13:32:04;99847.34;;;7.12;67.40
69982;BME280;57319;56.274;43.980;2023-04-02T13:34:30;99837.13;;;7.08;67.70
69982;BME280;57319;56.274;43.980;2023-04-02T13:36:56;99840.47;;;6.97;67.57
69982;BME280;57319;56.274;43.980;2023-04-02T13:39:22;99846.47;;;7.00;67.92
69982;BME280;57319;56.274;43.980;2023-04-02T13:41:59;99854.16;;;7.03;68.12
69982;BME280;57319;56.274;43.980;2023-04-02T13:44:27;99846.47;;;7.06;67.94
69982;BME280;57319;56.274;43.980;2023-04-02T13:46:54;99836.25;;;7.04;68.20
69982;BME280;57319;56.274;43.980;2023-04-02T13:49:22;99835.41;;;7.10;67.84
69982;BME280;57319;56.274;43.980;2023-04-02T13:51:59;99826.03;;;7.10;68.00
69982;BME280;57319;56.274;43.980;2023-04-02T13:54:48;99828.59;;;7.18;67.46
69982;BME280;57319;56.274;43.980;2023-04-02T13:57:15;99820.06;;;7.21;67.48
69982;BME280;57319;56.274;43.980;2023-04-02T13:59:41;99820.94;;;7.24;67.51
69982;BME280;57319;56.274;43.980;2023-04-02T14:02:09;99822.66;;;7.33;67.24
69982;BME280;57319;56.274;43.980;2023-04-02T14:04:42;99814.13;;;7.39;66.70
69982;BME280;57319;56.274;43.980;2023-04-02T14:07:18;99814.97;;;7.30;66.97
69982;BME280;57319;56.274;43.980;2023-04-02T14:12:44;99822.59;;;7.02;67.66
69982;BME280;57319;56.274;43.980;2023-04-02T14:18:35;99823.38;;;6.81;68.35
69982;BME280;57319;56.274;43.980;2023-04-02T14:26:36;99824.19;;;6.74;68.93
69982;BME280;57319;56.274;43.980;2023-04-02T14:31:43;99831.81;;;6.57;68.93
69982;BME280;57319;56.274;43.980;2023-04-02T14:37:05;99815.59;;;6.56;69.07
69982;BME280;57319;56.274;43.980;2023-04-02T14:42:30;99824.09;;;6.54;69.25
69982;BME280;57319;56.274;43.980;2023-04-02T14:45:06;99818.16;;;6.55;69.71
69982;BME280;57319;56.274;43.980;2023-04-02T14:50:11;99812.19;;;6.54;69.50
69982;BME280;57319;56.274;43.980;2023-04-02T14:52:38;99818.97;;;6.48;69.67
69982;BME280;57319;56.274;43.980;2023-04-02T14:55:20;99818.09;;;6.44;69.78
69982;BME280;57319;56.274;43.980;2023-04-02T14:57:51;99812.94;;;6.36;70.23
69982;BME280;57319;56.274;43.980;2023-04-02T15:03:05;99817.03;;;6.11;70.94
69982;BME280;57319;56.274;43.980;2023-04-02T15:05:43;99823.75;;;5.97;71.37
69982;BME280;57319;56.274;43.980;2023-04-02T15:08:21;99827.03;;;5.82;71.83
69982;BME280;57319;56.274;43.980;2023-04-02T15:11:16;99826.97;;;5.74;72.51
69982;BME280;57319;56.274;43.980;2023-04-02T15:13:56;99825.19;;;5.62;72.68
69982;BME280;57319;56.274;43.980;2023-04-02T15:16:25;99823.38;;;5.53;72.80
69982;BME280;57319;56.274;43.980;2023-04-02T15:18:54;99831.88;;;5.51;73.31
69982;BME280;57319;56.274;43.980;2023-04-02T15:29:16;99830.81;;;5.30;74.23
69982;BME280;57319;56.274;43.980;2023-04-02T15:31:46;99829.94;;;5.23;74.34
69982;BME280;57319;56.274;43.980;2023-04-02T15:34:41;99829.00;;;5.17;74.38
69982;BME280;57319;56.274;43.980;2023-04-02T15:45:49;99830.31;;;4.82;75.99
69982;BME280;57319;56.274;43.980;2023-04-02T15:48:28;99830.13;;;4.68;76.17
69982;BME280;57319;56.274;43.980;2023-04-02T15:54:27;99829.91;;;4.48;76.94
69982;BME280;57319;56.274;43.980;2023-04-02T16:00:21;99839.00;;;4.32;77.66
69982;BME280;57319;56.274;43.980;2023-04-02T16:10:41;99837.03;;;4.11;77.96
69982;BME280;57319;56.274;43.980;2023-04-02T16:13:33;99835.31;;;4.10;78.51
69982;BME280;57319;56.274;43.980;2023-04-02T16:21:22;99835.91;;;3.95;79.21
69982;BME280;57319;56.274;43.980;2023-04-02T16:23:49;99830.75;;;3.89;79.28
69982;BME280;57319;56.274;43.980;2023-04-02T16:29:12;99834.78;;;3.76;79.81
69982;BME280;57319;56.274;43.980;2023-04-02T16:31:56;99838.06;;;3.69;80.01
69982;BME280;57319;56.274;43.980;2023-04-02T16:34:58;99840.50;;;3.63;80.10
69982;BME280;57319;56.274;43.980;2023-04-02T16:37:46;99839.56;;;3.58;80.47
69982;BME280;57319;56.274;43.980;2023-04-02T16:43:33;99845.47;;;3.55;81.07
69982;BME280;57319;56.274;43.980;2023-04-02T16:48:44;99844.63;;;3.56;80.84
69982;BME280;57319;56.274;43.980;2023-04-02T16:51:22;99844.66;;;3.58;80.90
69982;BME280;57319;56.274;43.980;2023-04-02T16:54:10;99845.47;;;3.55;80.88
69982;BME280;57319;56.274;43.980;2023-04-02T17:13:23;99840.16;;;3.43;81.77
69982;BME280;57319;56.274;43.980;2023-04-02T17:16:09;99835.88;;;3.42;81.73
69982;BME280;57319;56.274;43.980;2023-04-02T17:18:40;99838.41;;;3.40;82.03
69982;BME280;57319;56.274;43.980;2023-04-02T17:21:13;99835.81;;;3.37;81.99
69982;BME280;57319;56.274;43.980;2023-04-02T17:23:55;99829.84;;;3.36;82.25
69982;BME280;57319;56.274;43.980;2023-04-02T17:26:28;99822.19;;;3.35;82.11
69982;BME280;57319;56.274;43.980;2023-04-02T17:29:00;99831.53;;;3.34;82.41
69982;BME280;57319;56.274;43.980;2023-04-02T17:31:30;99820.38;;;3.28;82.50
69982;BME280;57319;56.274;43.980;2023-04-02T17:33:58;99838.16;;;3.26;82.43
69982;BME280;57319;56.274;43.980;2023-04-02T17:39:40;99836.34;;;3.19;82.64
69982;BME280;57319;56.274;43.980;2023-04-02T18:08:29;99830.28;;;3.12;83.25
69982;BME280;57319;56.274;43.980;2023-04-02T18:11:13;99834.50;;;3.12;83.41
69982;BME280;57319;56.274;43.980;2023-04-02T18:13:49;99834.50;;;3.12;83.28
69982;BME280;57319;56.274;43.980;2023-04-02T18:16:26;99836.25;;;3.14;83.62
69982;BME280;57319;56.274;43.980;2023-04-02T18:24:46;99829.53;;;3.18;83.43
69982;BME280;57319;56.274;43.980;2023-04-02T18:50:32;99824.91;;;2.97;83.84
69982;BME280;57319;56.274;43.980;2023-04-02T18:53:07;99826.56;;;2.95;84.01
69982;BME280;57319;56.274;43.980;2023-04-02T18:55:35;99818.06;;;2.93;84.11
69982;BME280;57319;56.274;43.980;2023-04-02T18:58:05;99824.06;;;2.98;84.11
69982;BME280;57319;56.274;43.980;2023-04-02T19:00:38;99822.31;;;2.95;84.15
69982;BME280;57319;56.274;43.980;2023-04-02T19:05:49;99820.69;;;2.97;84.29
69982;BME280;57319;56.274;43.980;2023-04-02T19:11:21;99826.59;;;2.98;84.31
69982;BME280;57319;56.274;43.980;2023-04-02T19:13:54;99830.91;;;3.00;84.48